Forestdale, Massachusetts
Current Conditions -  °F | °C
As of 7:35 PM on Friday 31 Oct 2014 (Local Time) from KFMH Reporting Station
Overcast Overcast  
Wind Chill: 52°   Ceiling: 4900
Heat Index: 52°   Visibility: 10mi
Dew Point: 39°   Wind: 13mph
Humidity: 62%   Direction: 60°ENE
Pressure: 29.97"   Gusts: 23mph
Location:  41.69°N, 70.51°W
Report Text: KFMH 312335Z AUTO 06011G20KT 10SM OVC049 11/04 A2997 RMK AO2
Loading
Personal Weather Stations






























Interactive Weather Map
Tropical Storm Tracking
New forecast layout! Learn more

10-Day Weather Forecast

Advertisements
Track Severe Weather on mobile